Collegeville, Indiana
Current Conditions -  °F | °C
As of 9:35 AM on Thursday 23 Oct 2014 (Local Time) from KRZL Reporting Station
Clear Clear  
Wind Chill: 44°   Ceiling: Unl
Heat Index: 46°   Visibility: 7mi
Dew Point: 45°   Wind: 6mph
Humidity: 93%   Direction: 160°SSE
Pressure: 30.25"   Gusts: NA
Location:  40.9571°N, 87.0941°W
Report Text: KRZL 231435Z AUTO 16005KT 7SM CLR 08/07 A3025 RMK AO2
Loading
Personal Weather Stations






























Interactive Weather Map
Tropical Storm Tracking
New forecast layout! Learn more

10-Day Weather Forecast

Advertisements
Track Severe Weather on mobile